createdAt,value
2022-12-05T00:02:04.037Z,6.04
2022-12-05T00:04:33.687Z,6.06
2022-12-05T00:07:03.187Z,5.99
2022-12-05T00:09:34.057Z,6.07
2022-12-05T00:12:04.235Z,5.94
2022-12-05T00:14:34.409Z,5.95
2022-12-05T00:17:04.518Z,5.98
2022-12-05T00:19:34.177Z,5.96
2022-12-05T00:22:03.645Z,5.98
2022-12-05T00:24:34.532Z,5.95
2022-12-05T00:27:04.087Z,5.98
2022-12-05T00:29:33.664Z,5.97
2022-12-05T00:32:03.378Z,5.93
2022-12-05T00:34:32.942Z,5.96
2022-12-05T00:37:02.556Z,6.00
2022-12-05T00:39:32.141Z,5.93
2022-12-05T00:42:03.150Z,5.96
2022-12-05T00:44:32.688Z,5.98
2022-12-05T00:47:02.241Z,5.97
2022-12-05T00:49:31.733Z,5.94
2022-12-05T00:52:01.309Z,5.96
2022-12-05T00:54:30.902Z,5.97
2022-12-05T00:57:00.950Z,5.96
2022-12-05T00:59:31.960Z,6.01
2022-12-05T01:02:01.566Z,5.96
2022-12-05T01:04:31.070Z,6.00
2022-12-05T01:07:00.541Z,6.04
2022-12-05T01:09:30.046Z,6.03
2022-12-05T01:12:01.084Z,6.08
2022-12-05T01:14:32.765Z,6.14
2022-12-05T01:17:02.809Z,6.13
2022-12-05T01:19:33.497Z,5.96
2022-12-05T01:22:03.418Z,5.97
2022-12-05T01:24:32.921Z,5.98
2022-12-05T01:27:02.493Z,5.94
2022-12-05T01:29:33.663Z,5.95
2022-12-05T01:32:03.356Z,5.94
2022-12-05T01:34:33.177Z,5.97
2022-12-05T01:37:02.703Z,5.92
2022-12-05T01:39:32.406Z,5.87
2022-12-05T01:42:01.869Z,5.94
2022-12-05T01:44:49.992Z,5.87
2022-12-05T01:47:21.125Z,5.90
2022-12-05T01:49:50.739Z,5.87
2022-12-05T01:52:23.209Z,5.93
2022-12-05T01:54:55.746Z,5.92
2022-12-05T01:57:26.292Z,5.90
2022-12-05T02:00:00.302Z,5.91
2022-12-05T02:02:32.538Z,5.89
2022-12-05T02:05:04.236Z,5.97
2022-12-05T02:07:34.925Z,5.93
2022-12-05T02:10:04.799Z,5.93
2022-12-05T02:12:38.012Z,5.86
2022-12-05T02:15:22.941Z,5.87
2022-12-05T02:17:58.152Z,5.90
2022-12-05T02:20:33.439Z,5.92
2022-12-05T02:23:24.514Z,5.89
2022-12-05T02:26:17.820Z,5.93
2022-12-05T02:28:57.812Z,5.91
2022-12-05T02:31:35.061Z,5.87
2022-12-05T02:34:08.255Z,5.85
2022-12-05T02:36:41.751Z,5.85
2022-12-05T02:39:16.376Z,5.92
2022-12-05T02:41:51.066Z,5.89
2022-12-05T02:44:24.690Z,5.86
2022-12-05T02:46:56.755Z,5.91
2022-12-05T02:49:28.229Z,5.85
2022-12-05T02:51:58.892Z,5.81
2022-12-05T02:54:30.929Z,5.85
2022-12-05T02:57:00.829Z,5.84
2022-12-05T02:59:30.409Z,5.91
2022-12-05T03:02:01.526Z,5.91
2022-12-05T03:04:32.004Z,5.92
2022-12-05T03:07:03.849Z,5.88
2022-12-05T03:09:36.539Z,5.93
2022-12-05T03:12:09.951Z,5.90
2022-12-05T03:14:42.289Z,5.90
2022-12-05T03:17:16.020Z,5.94
2022-12-05T03:19:49.588Z,5.86
2022-12-05T03:22:21.885Z,5.87
2022-12-05T03:24:51.735Z,5.86
2022-12-05T03:27:24.197Z,5.87
2022-12-05T03:29:57.085Z,5.85
2022-12-05T03:32:33.621Z,5.81
2022-12-05T03:35:06.089Z,5.83
2022-12-05T03:37:41.088Z,5.84
2022-12-05T03:40:14.327Z,5.78
2022-12-05T03:42:48.208Z,5.77
2022-12-05T03:45:21.584Z,5.78
2022-12-05T03:47:58.373Z,5.75
2022-12-05T03:50:29.673Z,5.72
2022-12-05T03:53:20.168Z,5.77
2022-12-05T03:55:54.098Z,5.77
2022-12-05T03:58:27.312Z,5.77
2022-12-05T04:00:58.284Z,5.80
2022-12-05T04:03:39.262Z,5.75
2022-12-05T04:06:13.411Z,5.74
2022-12-05T04:08:45.578Z,5.75
2022-12-05T04:11:17.147Z,5.73
2022-12-05T04:13:49.728Z,5.72
2022-12-05T04:16:39.467Z,5.72
2022-12-05T04:19:15.282Z,5.72
2022-12-05T04:21:45.580Z,5.71
2022-12-05T04:24:35.724Z,5.71
2022-12-05T04:27:10.311Z,5.72
2022-12-05T04:29:43.714Z,5.78
2022-12-05T04:32:14.629Z,5.85
2022-12-05T04:34:49.010Z,5.90
2022-12-05T04:37:20.635Z,5.85
2022-12-05T04:39:54.338Z,5.85
2022-12-05T04:42:27.009Z,5.73
2022-12-05T04:45:00.241Z,5.79
2022-12-05T04:47:32.435Z,5.83
2022-12-05T04:50:04.159Z,5.79
2022-12-05T04:52:34.972Z,5.89
2022-12-05T04:55:06.809Z,5.94
2022-12-05T04:57:38.269Z,5.96
2022-12-05T05:00:08.391Z,5.92
2022-12-05T05:02:41.822Z,5.82
2022-12-05T05:05:15.147Z,5.83
2022-12-05T05:07:46.217Z,5.91
2022-12-05T05:10:18.875Z,5.88
2022-12-05T05:12:49.131Z,5.91
2022-12-05T05:15:19.158Z,5.90
2022-12-05T05:17:48.588Z,5.87
2022-12-05T05:20:25.626Z,5.80
2022-12-05T05:22:55.568Z,5.84
2022-12-05T05:25:25.784Z,5.93
2022-12-05T05:27:55.973Z,5.96
2022-12-05T05:30:26.150Z,6.02
2022-12-05T05:32:55.816Z,6.01
2022-12-05T05:35:26.865Z,5.99
2022-12-05T05:37:56.362Z,5.93
2022-12-05T05:40:26.042Z,6.02
2022-12-05T05:42:55.655Z,6.04
2022-12-05T05:45:25.320Z,6.03
2022-12-05T05:47:54.919Z,5.91
2022-12-05T05:50:24.473Z,5.99
2022-12-05T05:52:55.598Z,6.04
2022-12-05T05:55:25.174Z,6.07
2022-12-05T05:57:54.790Z,6.06
2022-12-05T06:00:24.499Z,6.03
2022-12-05T06:02:54.271Z,6.02
2022-12-05T06:05:23.962Z,6.06
2022-12-05T06:07:54.983Z,6.06
2022-12-05T06:10:24.547Z,6.04
2022-12-05T06:12:54.635Z,6.08
2022-12-05T06:15:24.912Z,6.04
2022-12-05T06:17:54.591Z,6.10
2022-12-05T06:20:24.086Z,6.15
2022-12-05T06:22:55.063Z,6.05
2022-12-05T06:25:24.669Z,6.12
2022-12-05T06:27:54.431Z,6.13
2022-12-05T06:30:24.170Z,6.17
2022-12-05T06:32:53.798Z,6.15
2022-12-05T06:35:23.491Z,6.21
2022-12-05T06:37:53.187Z,6.27
2022-12-05T06:40:24.917Z,6.28
2022-12-05T06:42:54.538Z,6.33
2022-12-05T06:45:23.987Z,6.35
2022-12-05T06:47:53.965Z,6.27
2022-12-05T06:50:23.449Z,6.27
2022-12-05T06:52:52.864Z,6.23
2022-12-05T06:55:22.510Z,6.21
2022-12-05T06:57:53.453Z,6.28
2022-12-05T07:00:40.331Z,6.29
2022-12-05T07:03:11.841Z,6.23
2022-12-05T07:05:41.518Z,6.17
2022-12-05T07:08:11.046Z,6.19
2022-12-05T07:10:40.638Z,6.23
2022-12-05T07:13:15.617Z,6.19
2022-12-05T07:15:47.292Z,6.16
2022-12-05T07:18:17.592Z,6.25
2022-12-05T07:21:11.674Z,6.34
2022-12-05T07:23:42.402Z,6.43
2022-12-05T07:26:13.092Z,6.41
2022-12-05T07:28:44.204Z,6.46
2022-12-05T07:31:16.689Z,6.43
2022-12-05T07:33:46.307Z,6.47
2022-12-05T07:36:16.590Z,6.46
2022-12-05T07:38:46.201Z,6.51
2022-12-05T07:41:18.280Z,6.54
2022-12-05T07:43:49.444Z,6.51
2022-12-05T07:46:19.450Z,6.56
2022-12-05T07:48:49.456Z,6.69
2022-12-05T07:51:19.508Z,6.78
2022-12-05T07:53:49.060Z,6.85
2022-12-05T07:56:19.498Z,6.91
2022-12-05T07:58:51.475Z,6.97
2022-12-05T08:01:22.212Z,6.95
2022-12-05T08:03:53.833Z,6.93
2022-12-05T08:06:24.357Z,6.90
2022-12-05T08:08:54.642Z,7.00
2022-12-05T08:11:25.252Z,7.06
2022-12-05T08:13:57.207Z,7.03
2022-12-05T08:16:29.283Z,7.01
2022-12-05T08:18:59.653Z,7.13
2022-12-05T08:21:29.437Z,7.12
2022-12-05T08:23:59.519Z,7.14
2022-12-05T08:26:30.268Z,7.14
2022-12-05T08:29:02.653Z,7.26
2022-12-05T08:31:33.702Z,7.32
2022-12-05T08:34:03.501Z,7.30
2022-12-05T08:36:33.213Z,7.35
2022-12-05T08:39:05.665Z,7.38
2022-12-05T08:41:35.323Z,7.36
2022-12-05T08:44:08.257Z,7.46
2022-12-05T08:46:39.059Z,7.37
2022-12-05T08:49:08.668Z,7.39
2022-12-05T08:51:38.605Z,7.46
2022-12-05T08:54:08.226Z,7.52
2022-12-05T08:56:38.598Z,7.58
2022-12-05T08:59:09.633Z,7.69
2022-12-05T09:01:40.580Z,7.64
2022-12-05T09:04:10.425Z,7.67
2022-12-05T09:06:40.890Z,7.69
2022-12-05T09:09:11.740Z,7.73
2022-12-05T09:11:46.549Z,7.81
2022-12-05T09:14:18.222Z,7.90
2022-12-05T09:16:48.614Z,7.87
2022-12-05T09:19:20.786Z,7.91
2022-12-05T09:21:50.482Z,7.97
2022-12-05T09:24:20.461Z,7.90
2022-12-05T09:26:50.223Z,7.91
2022-12-05T09:29:21.175Z,7.83
2022-12-05T09:31:52.298Z,7.78
2022-12-05T09:34:21.795Z,7.78
2022-12-05T09:37:01.325Z,7.84
2022-12-05T09:39:39.927Z,7.87
2022-12-05T09:42:27.197Z,7.88
2022-12-05T09:45:03.728Z,7.87
2022-12-05T09:47:40.966Z,7.83
2022-12-05T09:50:15.548Z,7.83
2022-12-05T09:52:54.641Z,7.81
2022-12-05T09:55:24.365Z,7.85
2022-12-05T09:57:55.418Z,7.84
2022-12-05T10:00:27.634Z,7.83
2022-12-05T10:03:03.537Z,7.81
2022-12-05T10:05:38.248Z,7.80
2022-12-05T10:08:13.865Z,7.79
2022-12-05T10:10:48.833Z,7.83
2022-12-05T10:13:25.189Z,7.85
2022-12-05T10:15:58.464Z,7.81
2022-12-05T10:18:34.984Z,7.78
2022-12-05T10:21:06.719Z,7.81
2022-12-05T10:23:57.089Z,7.82
2022-12-05T10:26:30.053Z,7.90
2022-12-05T10:29:03.700Z,7.92
2022-12-05T10:31:40.762Z,7.96
2022-12-05T10:34:14.985Z,8.00
2022-12-05T10:36:52.329Z,8.12
2022-12-05T10:39:21.884Z,8.14
2022-12-05T10:41:51.508Z,8.23
2022-12-05T10:44:21.112Z,8.17
2022-12-05T10:46:52.064Z,8.17
2022-12-05T10:49:22.426Z,8.17
2022-12-05T10:51:52.508Z,8.13
2022-12-05T10:54:23.536Z,8.13
2022-12-05T10:56:53.841Z,8.21
2022-12-05T10:59:24.243Z,8.19
2022-12-05T11:01:58.630Z,8.20
2022-12-05T11:04:31.345Z,8.23
2022-12-05T11:07:02.377Z,8.25
2022-12-05T11:09:33.323Z,8.22
2022-12-05T11:12:21.700Z,8.19
2022-12-05T11:14:56.337Z,8.14
2022-12-05T11:17:31.210Z,8.14
2022-12-05T11:20:00.979Z,8.12
2022-12-05T11:22:34.486Z,8.13
2022-12-05T11:25:24.065Z,8.13
2022-12-05T11:27:57.149Z,8.03
2022-12-05T11:30:30.754Z,8.07
2022-12-05T11:33:15.162Z,8.14
2022-12-05T11:35:47.164Z,8.12
2022-12-05T11:38:18.080Z,8.22
2022-12-05T11:40:54.603Z,8.22
2022-12-05T11:43:39.764Z,8.26
2022-12-05T11:46:15.477Z,8.18
2022-12-05T11:48:56.906Z,8.19
2022-12-05T11:51:37.275Z,8.25
2022-12-05T11:54:56.360Z,8.25
2022-12-05T11:57:18.089Z,8.14
2022-12-05T12:00:03.423Z,8.12
2022-12-05T12:02:40.781Z,8.04
2022-12-05T12:05:17.631Z,7.95
2022-12-05T12:07:56.888Z,7.99
2022-12-05T12:10:34.222Z,7.95
2022-12-05T12:13:15.481Z,7.96
2022-12-05T12:15:52.573Z,7.98
2022-12-05T12:18:31.067Z,8.00
2022-12-05T12:21:07.901Z,7.98
2022-12-05T12:23:44.418Z,8.00
2022-12-05T12:26:15.719Z,8.02
2022-12-05T12:28:47.689Z,8.02
2022-12-05T12:31:24.615Z,8.07
2022-12-05T12:33:59.497Z,8.10
2022-12-05T12:36:30.485Z,8.10
2022-12-05T12:39:08.921Z,8.12
2022-12-05T12:41:44.124Z,8.13
2022-12-05T12:44:23.174Z,8.13
2022-12-05T12:46:55.094Z,8.11
2022-12-05T12:49:36.115Z,8.10
2022-12-05T12:52:06.584Z,8.03
2022-12-05T12:55:03.897Z,8.04
2022-12-05T12:57:44.579Z,8.04
2022-12-05T13:00:21.365Z,8.06
2022-12-05T13:02:52.417Z,8.08
2022-12-05T13:05:24.720Z,8.05
2022-12-05T13:07:57.037Z,8.04
2022-12-05T13:10:30.143Z,8.07
2022-12-05T13:13:00.557Z,8.08
2022-12-05T13:15:34.521Z,8.06
2022-12-05T13:18:06.379Z,8.07
2022-12-05T13:20:37.209Z,8.07
2022-12-05T13:23:08.450Z,8.04
2022-12-05T13:25:40.908Z,8.05
2022-12-05T13:28:25.794Z,8.02
2022-12-05T13:31:01.457Z,8.02
2022-12-05T13:33:32.707Z,7.97
2022-12-05T13:36:24.235Z,7.96
2022-12-05T13:39:15.451Z,7.97
2022-12-05T13:42:04.988Z,7.95
2022-12-05T13:44:37.632Z,8.00
2022-12-05T13:47:10.194Z,8.02
2022-12-05T13:49:44.891Z,8.02
2022-12-05T13:52:17.012Z,8.00
2022-12-05T13:54:57.977Z,7.99
2022-12-05T13:57:49.427Z,7.95
2022-12-05T14:00:24.216Z,7.96
2022-12-05T14:02:55.185Z,7.95
2022-12-05T14:05:38.742Z,7.91
2022-12-05T14:08:26.571Z,7.94
2022-12-05T14:11:10.404Z,7.91
2022-12-05T14:13:43.838Z,7.92
2022-12-05T14:16:47.504Z,7.90
2022-12-05T14:19:35.124Z,7.89
2022-12-05T14:22:09.965Z,7.90
2022-12-05T14:24:44.093Z,7.88
2022-12-05T14:27:15.535Z,7.89
2022-12-05T14:29:55.744Z,7.85
2022-12-05T14:32:26.722Z,7.84
2022-12-05T14:34:58.305Z,7.80
2022-12-05T14:37:30.476Z,7.80
2022-12-05T14:40:01.717Z,7.79
2022-12-05T14:42:36.625Z,7.77
2022-12-05T14:45:21.185Z,7.77
2022-12-05T14:47:53.691Z,7.80
2022-12-05T14:50:34.520Z,7.79
2022-12-05T14:53:18.976Z,7.79
2022-12-05T14:55:49.666Z,7.79
2022-12-05T14:58:20.565Z,7.78
2022-12-05T15:00:56.594Z,7.78
2022-12-05T15:03:31.107Z,7.73
2022-12-05T15:06:03.918Z,7.74
2022-12-05T15:08:36.307Z,7.72
2022-12-05T15:11:05.977Z,7.72
2022-12-05T15:13:36.170Z,7.74
2022-12-05T15:16:09.091Z,7.76
2022-12-05T15:18:41.260Z,7.73
2022-12-05T15:21:15.243Z,7.73
2022-12-05T15:23:46.148Z,7.70
2022-12-05T15:26:51.070Z,7.64
2022-12-05T15:29:12.895Z,7.67
2022-12-05T15:31:45.905Z,7.70
2022-12-05T15:34:19.563Z,7.64
2022-12-05T15:36:50.990Z,7.68
2022-12-05T15:39:25.769Z,7.69
2022-12-05T15:41:56.277Z,7.65
2022-12-05T15:44:34.259Z,7.66
2022-12-05T15:47:20.049Z,7.62
2022-12-05T15:49:51.422Z,7.64
2022-12-05T15:52:26.611Z,7.66
2022-12-05T15:54:57.225Z,7.69
2022-12-05T15:57:29.153Z,7.70
2022-12-05T16:00:02.942Z,7.71
2022-12-05T16:02:38.260Z,7.66
2022-12-05T16:05:20.295Z,7.67
2022-12-05T16:07:50.595Z,7.68
2022-12-05T16:10:23.418Z,7.62
2022-12-05T16:12:56.375Z,7.67
2022-12-05T16:15:28.041Z,7.67
2022-12-05T16:17:58.693Z,7.61
2022-12-05T16:20:33.646Z,7.69
2022-12-05T16:23:04.503Z,7.63
2022-12-05T16:25:35.084Z,7.60
2022-12-05T16:28:16.493Z,7.62
2022-12-05T16:30:59.052Z,7.65
2022-12-05T16:33:29.828Z,7.68
2022-12-05T16:36:09.736Z,7.69
2022-12-05T16:38:41.035Z,7.69
2022-12-05T16:41:11.630Z,7.63
2022-12-05T16:43:45.002Z,7.66
2022-12-05T16:46:41.524Z,7.65
2022-12-05T16:49:19.701Z,7.66
2022-12-05T16:51:56.687Z,7.66
2022-12-05T16:54:26.663Z,7.62
2022-12-05T16:56:56.528Z,7.57
2022-12-05T16:59:28.729Z,7.57
2022-12-05T17:01:58.330Z,7.54
2022-12-05T17:04:28.360Z,7.57
2022-12-05T17:06:59.905Z,7.64
2022-12-05T17:09:29.514Z,7.59
2022-12-05T17:12:02.270Z,7.60
2022-12-05T17:14:31.636Z,7.62
2022-12-05T17:17:03.446Z,7.61
2022-12-05T17:19:33.277Z,7.61
2022-12-05T17:22:03.332Z,7.64
2022-12-05T17:24:32.003Z,7.65
2022-12-05T17:27:00.778Z,7.62
2022-12-05T17:29:35.309Z,7.59
2022-12-05T17:32:04.426Z,7.45
2022-12-05T17:34:34.386Z,7.50
2022-12-05T17:37:04.449Z,7.52
2022-12-05T17:39:33.399Z,7.39
2022-12-05T17:42:02.429Z,7.48
2022-12-05T17:44:31.510Z,7.52
2022-12-05T17:47:06.021Z,7.50
2022-12-05T17:49:36.450Z,7.51
2022-12-05T17:52:21.350Z,7.47
2022-12-05T17:54:50.846Z,7.50
2022-12-05T17:57:19.405Z,7.52
2022-12-05T17:59:48.123Z,7.54
2022-12-05T18:02:17.523Z,7.42
2022-12-05T18:04:46.392Z,7.47
2022-12-05T18:07:16.845Z,7.42
2022-12-05T18:09:45.667Z,7.45
2022-12-05T18:12:15.641Z,7.50
2022-12-05T18:14:44.994Z,7.46
2022-12-05T18:17:13.747Z,7.47
2022-12-05T18:19:42.589Z,7.48
2022-12-05T18:22:11.704Z,7.48
2022-12-05T18:24:42.196Z,7.41
2022-12-05T18:27:11.971Z,7.42
2022-12-05T18:29:40.589Z,7.48
2022-12-05T18:32:12.539Z,7.49
2022-12-05T18:34:41.913Z,7.44
2022-12-05T18:37:11.632Z,7.42
2022-12-05T18:39:40.532Z,7.39
2022-12-05T18:42:15.005Z,7.40
2022-12-05T18:44:44.224Z,7.41
2022-12-05T18:47:12.858Z,7.36
2022-12-05T18:49:41.651Z,7.38
2022-12-05T18:52:10.311Z,7.40
2022-12-05T18:54:38.903Z,7.36
2022-12-05T18:57:07.424Z,7.39
2022-12-05T18:59:38.185Z,7.44
2022-12-05T19:02:06.981Z,7.39
2022-12-05T19:04:35.847Z,7.40
2022-12-05T19:07:04.709Z,7.42
2022-12-05T19:09:33.491Z,7.32
2022-12-05T19:12:03.265Z,7.37
2022-12-05T19:14:35.844Z,7.42
2022-12-05T19:17:06.713Z,7.37
2022-12-05T19:19:35.577Z,7.34
2022-12-05T19:22:04.660Z,7.39
2022-12-05T19:24:33.348Z,7.39
2022-12-05T19:27:02.025Z,7.38
2022-12-05T19:29:30.722Z,7.40
2022-12-05T19:31:59.499Z,7.44
2022-12-05T19:34:29.999Z,7.40
2022-12-05T19:36:58.782Z,7.44
2022-12-05T19:39:30.258Z,7.39
2022-12-05T19:41:59.594Z,7.43
2022-12-05T19:44:28.655Z,7.45
2022-12-05T19:46:57.405Z,7.39
2022-12-05T19:49:26.104Z,7.32
2022-12-05T19:51:56.304Z,7.39
2022-12-05T19:54:24.888Z,7.35
2022-12-05T19:56:58.311Z,7.35
2022-12-05T19:59:27.436Z,7.37
2022-12-05T20:01:56.239Z,7.26
2022-12-05T20:04:24.951Z,7.35
2022-12-05T20:06:53.803Z,7.40
2022-12-05T20:09:24.778Z,7.27
2022-12-05T20:11:55.835Z,7.34
2022-12-05T20:14:26.382Z,7.41
2022-12-05T20:16:55.937Z,7.32
2022-12-05T20:19:25.651Z,7.34
2022-12-05T20:21:55.551Z,7.36
2022-12-05T20:24:25.915Z,7.35
2022-12-05T20:26:54.731Z,7.37
2022-12-05T20:29:24.597Z,7.43
2022-12-05T20:31:56.774Z,7.46
2022-12-05T20:34:26.891Z,7.49
2022-12-05T20:36:55.659Z,7.48
2022-12-05T20:39:27.423Z,7.42
2022-12-05T20:41:56.276Z,7.40
2022-12-05T20:44:25.134Z,7.37
2022-12-05T20:46:53.766Z,7.35
2022-12-05T20:49:22.518Z,7.32
2022-12-05T20:51:51.089Z,7.29
2022-12-05T20:54:19.807Z,7.36
2022-12-05T20:56:50.104Z,7.32
2022-12-05T20:59:18.878Z,7.29
2022-12-05T21:01:47.780Z,7.29
2022-12-05T21:04:16.660Z,7.22
2022-12-05T21:06:46.685Z,7.25
2022-12-05T21:09:26.670Z,7.31
2022-12-05T21:12:07.268Z,7.31
2022-12-05T21:14:39.600Z,7.30
2022-12-05T21:17:08.743Z,7.28
2022-12-05T21:19:39.441Z,7.23
2022-12-05T21:22:08.180Z,7.23
2022-12-05T21:24:36.841Z,7.31
2022-12-05T21:27:05.513Z,7.27
2022-12-05T21:29:35.493Z,7.24
2022-12-05T21:32:04.246Z,7.22
2022-12-05T21:34:34.101Z,7.21
2022-12-05T21:37:03.669Z,7.23
2022-12-05T21:39:33.272Z,7.24
2022-12-05T21:42:02.774Z,7.19
2022-12-05T21:44:32.400Z,7.22
2022-12-05T21:47:03.354Z,7.24
2022-12-05T21:49:33.049Z,7.27
2022-12-05T21:52:02.653Z,7.28
2022-12-05T21:54:35.531Z,7.28
2022-12-05T21:57:05.337Z,7.26
2022-12-05T21:59:35.225Z,7.24
2022-12-05T22:02:12.243Z,7.26
2022-12-05T22:04:41.856Z,7.31
2022-12-05T22:07:11.536Z,7.31
2022-12-05T22:09:41.036Z,7.22
2022-12-05T22:12:11.333Z,7.19
2022-12-05T22:14:41.510Z,7.22
2022-12-05T22:17:14.201Z,7.18
2022-12-05T22:19:43.699Z,7.22
2022-12-05T22:22:13.233Z,7.24
2022-12-05T22:24:42.850Z,7.28
2022-12-05T22:27:12.525Z,7.18
2022-12-05T22:29:42.072Z,7.22
2022-12-05T22:32:11.804Z,7.24
2022-12-05T22:34:42.958Z,7.24
2022-12-05T22:37:13.760Z,7.20
2022-12-05T22:39:43.470Z,7.25
2022-12-05T22:42:13.154Z,7.22
2022-12-05T22:44:42.808Z,7.20
2022-12-05T22:47:12.545Z,7.24
2022-12-05T22:49:43.460Z,7.25
2022-12-05T22:52:13.034Z,7.26
2022-12-05T22:54:42.794Z,7.28
2022-12-05T22:57:12.364Z,7.25
2022-12-05T22:59:41.892Z,7.27
2022-12-05T23:02:11.397Z,7.27
2022-12-05T23:04:41.048Z,7.18
2022-12-05T23:07:12.604Z,7.19
2022-12-05T23:09:42.188Z,7.21
2022-12-05T23:12:12.816Z,7.22
2022-12-05T23:14:43.637Z,7.21
2022-12-05T23:17:13.657Z,7.24
2022-12-05T23:19:43.220Z,7.24
2022-12-05T23:22:14.369Z,7.18
2022-12-05T23:24:44.002Z,7.20
2022-12-05T23:27:13.531Z,7.15
2022-12-05T23:29:43.108Z,7.17
2022-12-05T23:32:12.594Z,7.14
2022-12-05T23:34:42.230Z,7.14
2022-12-05T23:37:12.037Z,7.07
2022-12-05T23:39:43.045Z,7.13
2022-12-05T23:42:15.332Z,7.14
2022-12-05T23:44:45.120Z,7.15
2022-12-05T23:47:15.102Z,7.14
2022-12-05T23:49:44.713Z,7.12
2022-12-05T23:52:14.365Z,7.17
2022-12-05T23:54:45.370Z,7.11
2022-12-05T23:57:17.752Z,7.12
2022-12-05T23:59:47.660Z,7.12
